Helston, United Kingdom
Current Conditions -  °F | °C
As of 3:50 PM on Friday 31 Oct 2014 (Local Time) from EGDR Reporting Station
Haze Haze  
Wind Chill: 63°   Ceiling: 1600
Heat Index: 63°   Visibility: 4mi
Dew Point: 59°   Wind: 17mph
Humidity: 88%   Direction: 180°S
Pressure: 29.83"   Gusts: 30mph
Location:  50.08°N, 5.2°W
Report Text: EGDR 311550Z 18015G26KT 7000 HZ FEW012 BKN016 OVC022 17/15 Q1010 WHT
Loading
Personal Weather Stations






























Interactive Weather Map
Tropical Storm Tracking
New forecast layout! Learn more

10-Day Weather Forecast

Advertisements
Track Severe Weather on mobile